Aérodrome :
LOGIN :

S'inscrire | Disclaimer

   EN    FR    IT 

 










Légende :    VFR   VFR Marginal   IFR   IFR Intensif   IFR Très Intensif
Visi : 
Plafond : 
>= 8 km
>= 3000ft
5 à 8 km
1000 à 3000 ft
1500m à 5 km
500 à 1000 ft
800 à 1500m
200 à 500 ft
< 800m
< 200 ft
Symboles :   Orages  Brouillard  Fortes neiges  Fortes précipitations  Vent > 20 kt
SIGMETs :   Divers  Orages  Givrage  Turbulence  Onde Orograph.  Cendres Volcan.







- Altitude de l'aérodrome : 101 ft
- Code IATA : HAD


ESMT - Halmstad

DERNIER METAR :
  • 221150Z 14012KT 6000 -RA FEW006 BKN009 04/03 Q0999

METARs EXPIRÉS :
  • 221120Z 15011KT 2600 -SN FEW005 SCT007 BKN011 04/03 Q0999
  • 221050Z 15010KT 110V180 6000 -RASN SCT005 BKN007 03/02 Q0999
  • 221020Z 13013KT 2500 -SN FEW007 BKN008 03/02 Q1000
  • 220950Z 14014KT 9999 BKN009 03/02 Q1000

TAF TAF ESMT
Valide du 22 à 12h jusqu'au 22 à 21h UTC


221115Z 2212/2221 13012KT 7000 BR BKN006
TEMPO 2212/2215 2000 -RASN BKN004
TEMPO 2215/2221 2000 RADZ BKN003
Pas de NOTAMs connus pour ce terrain.



MET'MAP, la Météo Aéronautique d'un coup d'oeil ! - Copyright ORBIFLY Décembre 2007 - Disclaimer

ORBIFLY MET'MAP TEAM :

Programmation & Développement : Alexandra Zaïnal
Conception & Développement : Baudouin d'Aumeries
Co-Programmation & Développement : Marc-Olivier Méhu
Soutien technique & logistique : Manuel Goepfert

Contact : metmap@orbifly.com




SOURCES & CREDITS :

   NOAA